createdAt,value
2023-03-19T00:00:32.805Z,39.45
2023-03-19T00:03:01.229Z,40.30
2023-03-19T00:05:29.404Z,39.95
2023-03-19T00:07:57.526Z,38.58
2023-03-19T00:10:25.577Z,38.00
2023-03-19T00:12:53.763Z,37.33
2023-03-19T00:15:22.096Z,38.50
2023-03-19T00:17:51.640Z,35.95
2023-03-19T00:20:20.434Z,36.65
2023-03-19T00:22:48.576Z,36.00
2023-03-19T00:25:16.728Z,35.40
2023-03-19T00:27:44.877Z,35.45
2023-03-19T00:30:13.886Z,35.85
2023-03-19T00:32:42.209Z,34.58
2023-03-19T00:35:12.231Z,34.00
2023-03-19T00:37:41.163Z,35.75
2023-03-19T00:40:10.841Z,32.88
2023-03-19T00:42:39.047Z,33.78
2023-03-19T00:45:08.369Z,32.88
2023-03-19T00:47:36.531Z,32.88
2023-03-19T00:50:05.182Z,32.05
2023-03-19T00:52:35.604Z,32.35
2023-03-19T00:55:03.841Z,32.20
2023-03-19T00:57:32.200Z,33.00
2023-03-19T01:00:00.632Z,33.42
2023-03-19T01:02:28.818Z,32.38
2023-03-19T01:04:56.914Z,31.70
2023-03-19T01:07:25.028Z,31.58
2023-03-19T01:09:54.519Z,30.90
2023-03-19T01:12:22.631Z,29.95
2023-03-19T01:14:50.866Z,30.08
2023-03-19T01:17:18.999Z,30.27
2023-03-19T01:19:47.535Z,28.55
2023-03-19T01:22:16.777Z,30.05
2023-03-19T01:24:49.631Z,29.40
2023-03-19T01:27:19.381Z,27.48
2023-03-19T01:29:47.471Z,26.35
2023-03-19T01:32:21.635Z,26.33
2023-03-19T01:35:15.823Z,28.75
2023-03-19T01:37:44.030Z,26.83
2023-03-19T01:40:13.968Z,27.17
2023-03-19T01:43:12.613Z,27.15
2023-03-19T01:45:48.944Z,26.90
2023-03-19T01:48:48.086Z,27.48
2023-03-19T01:51:20.031Z,26.33
2023-03-19T01:53:59.580Z,26.05
2023-03-19T01:56:38.982Z,24.38
2023-03-19T01:59:16.053Z,25.77
2023-03-19T02:02:04.660Z,26.55
2023-03-19T02:04:33.138Z,24.55
2023-03-19T02:07:01.261Z,26.15
2023-03-19T02:09:30.140Z,24.35
2023-03-19T02:11:58.210Z,24.15
2023-03-19T02:14:27.719Z,23.55
2023-03-19T02:16:55.984Z,23.75
2023-03-19T02:19:29.793Z,23.77
2023-03-19T02:21:57.899Z,24.42
2023-03-19T02:24:27.703Z,23.42
2023-03-19T02:27:06.130Z,25.02
2023-03-19T02:29:34.243Z,22.30
2023-03-19T02:32:03.693Z,23.83
2023-03-19T02:34:36.905Z,22.85
2023-03-19T02:37:08.359Z,23.02
2023-03-19T02:39:39.863Z,22.58
2023-03-19T02:42:09.648Z,22.15
2023-03-19T02:44:37.728Z,21.30
2023-03-19T02:47:06.308Z,21.48
2023-03-19T02:49:34.428Z,21.25
2023-03-19T02:52:02.572Z,22.27
2023-03-19T02:54:30.775Z,22.73
2023-03-19T02:56:58.971Z,20.17
2023-03-19T02:59:28.539Z,19.77
2023-03-19T03:01:56.710Z,20.90
2023-03-19T03:04:25.045Z,20.95
2023-03-19T03:06:54.060Z,19.65
2023-03-19T03:09:22.654Z,20.08
2023-03-19T03:11:51.124Z,20.27
2023-03-19T03:14:19.293Z,19.33
2023-03-19T03:16:48.892Z,19.33
2023-03-19T03:19:17.045Z,19.13
2023-03-19T03:21:45.137Z,20.15
2023-03-19T03:24:13.200Z,19.70
2023-03-19T03:26:41.844Z,18.88
2023-03-19T03:29:09.944Z,18.30
2023-03-19T03:31:38.136Z,19.42
2023-03-19T03:34:07.990Z,18.70
2023-03-19T03:36:36.937Z,17.80
2023-03-19T03:39:05.265Z,18.30
2023-03-19T03:41:33.457Z,18.55
2023-03-19T03:44:02.393Z,17.15
2023-03-19T03:46:33.107Z,17.17
2023-03-19T03:49:02.300Z,17.05
2023-03-19T03:51:31.873Z,18.35
2023-03-19T03:54:00.002Z,17.17
2023-03-19T03:56:28.140Z,17.25
2023-03-19T03:58:56.584Z,18.17
2023-03-19T04:01:24.732Z,18.98
2023-03-19T04:03:56.668Z,17.38
2023-03-19T04:06:25.092Z,16.80
2023-03-19T04:09:13.074Z,16.05
2023-03-19T04:11:42.314Z,16.17
2023-03-19T04:14:10.754Z,15.38
2023-03-19T04:16:40.473Z,16.67
2023-03-19T04:19:08.801Z,17.20
2023-03-19T04:21:36.943Z,15.55
2023-03-19T04:24:05.648Z,14.20
2023-03-19T04:26:35.144Z,14.65
2023-03-19T04:29:03.372Z,14.80
2023-03-19T04:31:31.547Z,15.73
2023-03-19T04:34:00.379Z,15.45
2023-03-19T04:36:28.696Z,15.15
2023-03-19T04:38:57.004Z,15.38
2023-03-19T04:41:26.092Z,15.23
2023-03-19T04:44:27.969Z,14.65
2023-03-19T04:46:56.606Z,15.27
2023-03-19T04:49:26.029Z,14.82
2023-03-19T04:51:56.888Z,14.63
2023-03-19T04:54:25.371Z,16.05
2023-03-19T04:56:54.361Z,14.07
2023-03-19T04:59:25.085Z,13.10
2023-03-19T05:01:54.658Z,13.90
2023-03-19T05:04:25.070Z,15.25
2023-03-19T05:06:57.452Z,13.60
2023-03-19T05:09:26.202Z,13.52
2023-03-19T05:11:54.330Z,13.70
2023-03-19T05:14:23.816Z,14.15
2023-03-19T05:17:19.624Z,14.65
2023-03-19T05:20:01.560Z,13.38
2023-03-19T05:22:32.187Z,12.63
2023-03-19T05:25:00.905Z,13.20
2023-03-19T05:27:30.510Z,14.43
2023-03-19T05:30:06.624Z,13.80
2023-03-19T05:32:53.144Z,13.35
2023-03-19T05:35:35.686Z,12.38
2023-03-19T05:38:06.427Z,12.70
2023-03-19T05:40:36.130Z,13.60
2023-03-19T05:43:17.942Z,11.95
2023-03-19T05:45:51.558Z,11.73
2023-03-19T05:48:25.060Z,13.20
2023-03-19T05:50:54.018Z,11.90
2023-03-19T05:53:24.610Z,12.77
2023-03-19T05:56:28.201Z,12.13
2023-03-19T05:59:25.914Z,11.50
2023-03-19T06:02:06.824Z,11.57
2023-03-19T06:04:36.967Z,12.43
2023-03-19T06:07:05.547Z,11.90
2023-03-19T06:09:33.942Z,13.05
2023-03-19T06:12:02.386Z,11.80
2023-03-19T06:14:56.758Z,11.32
2023-03-19T06:17:44.771Z,12.82
2023-03-19T06:20:17.892Z,11.02
2023-03-19T06:22:46.833Z,11.35
2023-03-19T06:25:15.152Z,11.82
2023-03-19T06:27:43.699Z,12.18
2023-03-19T06:30:25.656Z,10.88
2023-03-19T06:32:54.875Z,11.18
2023-03-19T06:35:25.237Z,11.02
2023-03-19T06:37:54.465Z,10.65
2023-03-19T06:40:22.963Z,10.50
2023-03-19T06:42:51.179Z,10.50
2023-03-19T06:45:20.328Z,10.95
2023-03-19T06:47:48.505Z,10.35
2023-03-19T06:50:16.886Z,11.57
2023-03-19T06:52:46.746Z,11.07
2023-03-19T06:55:14.853Z,10.95
2023-03-19T06:57:42.975Z,14.25
2023-03-19T07:00:13.160Z,10.68
2023-03-19T07:02:41.346Z,11.13
2023-03-19T07:05:09.988Z,10.23
2023-03-19T07:07:38.157Z,11.90
2023-03-19T07:10:08.750Z,10.85
2023-03-19T07:12:36.892Z,14.13
2023-03-19T07:15:05.613Z,11.68
2023-03-19T07:17:33.738Z,16.55
2023-03-19T07:20:01.797Z,21.52
2023-03-19T07:22:29.953Z,23.15
2023-03-19T07:24:58.005Z,25.05
2023-03-19T07:27:27.672Z,21.00
2023-03-19T07:29:56.302Z,22.35
2023-03-19T07:32:24.534Z,22.67
2023-03-19T07:34:52.601Z,24.77
2023-03-19T07:37:22.602Z,28.67
2023-03-19T07:39:50.875Z,29.40
2023-03-19T07:42:19.037Z,29.45
2023-03-19T07:44:48.557Z,31.05
2023-03-19T07:47:28.456Z,32.22
2023-03-19T07:49:57.441Z,32.08
2023-03-19T07:52:25.973Z,33.70
2023-03-19T07:54:54.242Z,37.47
2023-03-19T07:57:22.710Z,37.17
2023-03-19T07:59:52.205Z,40.53
2023-03-19T08:02:22.800Z,33.88
2023-03-19T08:04:51.665Z,42.67
2023-03-19T08:07:20.281Z,40.10
2023-03-19T08:09:48.382Z,49.83
2023-03-19T08:12:16.635Z,40.50
2023-03-19T08:14:44.683Z,46.72
2023-03-19T08:17:14.296Z,49.28
2023-03-19T08:19:42.419Z,52.75
2023-03-19T08:22:10.812Z,50.00
2023-03-19T08:24:38.882Z,53.03
2023-03-19T08:27:07.918Z,57.05
2023-03-19T08:29:36.665Z,53.33
2023-03-19T08:32:04.912Z,52.42
2023-03-19T08:34:34.390Z,55.80
2023-03-19T08:37:02.532Z,55.20
2023-03-19T08:39:30.622Z,55.15
2023-03-19T08:41:58.836Z,53.13
2023-03-19T08:44:26.923Z,57.17
2023-03-19T08:46:55.572Z,62.22
2023-03-19T08:49:23.717Z,58.08
2023-03-19T08:51:53.241Z,58.63
2023-03-19T08:54:22.897Z,55.35
2023-03-19T08:56:51.396Z,60.05
2023-03-19T08:59:19.472Z,64.07
2023-03-19T09:01:51.840Z,58.42
2023-03-19T09:04:20.025Z,69.13
2023-03-19T09:06:51.181Z,58.67
2023-03-19T09:09:21.005Z,60.38
2023-03-19T09:11:49.239Z,64.10
2023-03-19T09:14:19.916Z,53.33
2023-03-19T09:16:48.128Z,60.60
2023-03-19T09:19:16.237Z,58.47
2023-03-19T09:21:44.881Z,57.47
2023-03-19T09:24:12.929Z,54.80
2023-03-19T09:26:42.472Z,58.53
2023-03-19T09:29:10.717Z,49.28
2023-03-19T09:31:38.927Z,56.20
2023-03-19T09:34:07.250Z,53.05
2023-03-19T09:36:35.694Z,53.60
2023-03-19T09:39:04.517Z,52.80
2023-03-19T09:41:35.799Z,52.28
2023-03-19T09:44:05.523Z,54.88
2023-03-19T09:46:40.014Z,48.40
2023-03-19T09:49:13.948Z,52.47
2023-03-19T09:51:45.188Z,47.70
2023-03-19T09:54:38.209Z,51.25
2023-03-19T09:57:06.376Z,49.17
2023-03-19T09:59:36.027Z,51.67
2023-03-19T10:02:18.282Z,46.45
2023-03-19T10:04:50.418Z,47.78
2023-03-19T10:07:28.453Z,47.92
2023-03-19T10:10:02.901Z,44.35
2023-03-19T10:12:40.122Z,48.17
2023-03-19T10:15:17.374Z,45.88
2023-03-19T10:17:50.558Z,51.20
2023-03-19T10:20:21.570Z,49.55
2023-03-19T10:22:51.559Z,53.90
2023-03-19T10:25:21.309Z,53.33
2023-03-19T10:27:52.175Z,52.25
2023-03-19T10:30:22.188Z,52.20
2023-03-19T10:32:53.067Z,46.42
2023-03-19T10:35:23.134Z,45.65
2023-03-19T10:37:51.963Z,42.53
2023-03-19T10:40:23.648Z,43.78
2023-03-19T10:43:02.993Z,39.97
2023-03-19T10:45:33.963Z,36.35
2023-03-19T10:48:03.002Z,35.08
2023-03-19T10:50:33.183Z,39.38
2023-03-19T10:53:05.644Z,36.58
2023-03-19T10:55:34.201Z,40.17
2023-03-19T10:58:06.907Z,36.47
2023-03-19T11:00:36.556Z,37.25
2023-03-19T11:03:05.600Z,42.42
2023-03-19T11:05:34.863Z,45.42
2023-03-19T11:08:04.129Z,49.70
2023-03-19T11:10:33.409Z,44.45
2023-03-19T11:13:01.958Z,41.45
2023-03-19T11:15:34.183Z,50.25
2023-03-19T11:18:07.864Z,42.75
2023-03-19T11:20:37.197Z,46.95
2023-03-19T11:23:12.211Z,43.75
2023-03-19T11:25:41.736Z,47.83
2023-03-19T11:28:11.197Z,44.67
2023-03-19T11:30:43.225Z,49.75
2023-03-19T11:33:21.070Z,48.60
2023-03-19T11:35:51.996Z,50.72
2023-03-19T11:38:23.098Z,47.58
2023-03-19T11:40:53.714Z,49.42
2023-03-19T11:43:45.650Z,50.50
2023-03-19T11:46:21.671Z,45.53
2023-03-19T11:49:10.374Z,49.92
2023-03-19T11:51:40.158Z,53.70
2023-03-19T11:54:11.919Z,45.17
2023-03-19T11:56:43.358Z,50.53
2023-03-19T11:59:19.352Z,45.95
2023-03-19T12:02:18.242Z,46.20
2023-03-19T12:05:11.543Z,49.72
2023-03-19T12:07:42.549Z,47.90
2023-03-19T12:10:26.537Z,41.15
2023-03-19T12:12:57.651Z,45.47
2023-03-19T12:15:27.320Z,43.30
2023-03-19T12:18:01.039Z,39.45
2023-03-19T12:20:39.499Z,40.20
2023-03-19T12:23:08.963Z,42.30
2023-03-19T12:25:43.296Z,48.90
2023-03-19T12:28:14.667Z,51.22
2023-03-19T12:30:43.541Z,51.88
2023-03-19T12:33:30.552Z,51.13
2023-03-19T12:36:00.371Z,42.88
2023-03-19T12:38:36.804Z,45.67
2023-03-19T12:41:07.825Z,40.72
2023-03-19T12:43:40.113Z,42.13
2023-03-19T12:46:10.565Z,42.85
2023-03-19T12:48:42.642Z,47.47
2023-03-19T12:51:13.756Z,42.72
2023-03-19T12:53:45.648Z,35.28
2023-03-19T12:56:15.947Z,31.83
2023-03-19T12:58:50.920Z,31.38
2023-03-19T13:01:22.321Z,37.45
2023-03-19T13:03:54.082Z,37.67
2023-03-19T13:06:24.964Z,72.07
2023-03-19T13:08:54.586Z,81.30
2023-03-19T13:11:39.950Z,78.88
2023-03-19T13:14:12.266Z,64.40
2023-03-19T13:16:42.724Z,60.28
2023-03-19T13:19:15.906Z,61.90
2023-03-19T13:21:46.584Z,62.42
2023-03-19T13:24:19.305Z,56.38
2023-03-19T13:26:47.456Z,55.03
2023-03-19T13:29:18.776Z,56.25
2023-03-19T13:31:47.536Z,53.83
2023-03-19T13:34:23.485Z,56.65
2023-03-19T13:36:55.902Z,53.15
2023-03-19T13:39:27.376Z,54.50
2023-03-19T13:41:59.806Z,52.22
2023-03-19T13:44:35.931Z,48.45
2023-03-19T13:47:04.423Z,55.83
2023-03-19T13:49:35.834Z,52.65
2023-03-19T13:52:48.188Z,48.63
2023-03-19T13:55:34.912Z,47.00
2023-03-19T13:58:38.240Z,49.20
2023-03-19T14:01:07.469Z,47.80
2023-03-19T14:03:36.137Z,47.08
2023-03-19T14:06:05.866Z,50.10
2023-03-19T14:08:42.845Z,50.83
2023-03-19T14:11:11.014Z,47.08
2023-03-19T14:13:39.740Z,48.75
2023-03-19T14:16:09.712Z,46.08
2023-03-19T14:18:41.075Z,44.50
2023-03-19T14:21:12.986Z,45.25
2023-03-19T14:23:46.340Z,45.03
2023-03-19T14:26:17.992Z,44.28
2023-03-19T14:28:54.786Z,43.40
2023-03-19T14:31:31.288Z,42.72
2023-03-19T14:34:16.587Z,45.38
2023-03-19T14:36:47.116Z,42.88
2023-03-19T14:39:21.646Z,45.05
2023-03-19T14:41:51.777Z,41.78
2023-03-19T14:44:45.305Z,41.30
2023-03-19T14:47:27.503Z,42.92
2023-03-19T14:50:13.526Z,44.83
2023-03-19T14:52:41.948Z,46.83
2023-03-19T14:55:12.264Z,39.47
2023-03-19T14:57:40.468Z,42.90
2023-03-19T15:00:14.331Z,37.30
2023-03-19T15:02:43.041Z,38.97
2023-03-19T15:05:14.420Z,37.67
2023-03-19T15:07:45.019Z,38.92
2023-03-19T15:10:17.572Z,39.05
2023-03-19T15:13:20.953Z,40.22
2023-03-19T15:16:04.079Z,38.70
2023-03-19T15:18:32.275Z,38.72
2023-03-19T15:21:00.514Z,38.70
2023-03-19T15:23:29.359Z,34.17
2023-03-19T15:26:01.227Z,37.97
2023-03-19T15:28:30.157Z,35.53
2023-03-19T15:31:10.294Z,36.97
2023-03-19T15:33:46.930Z,34.05
2023-03-19T15:36:17.461Z,35.97
2023-03-19T15:38:47.375Z,34.15
2023-03-19T15:41:16.997Z,35.45
2023-03-19T15:43:45.218Z,34.33
2023-03-19T15:46:16.039Z,34.05
2023-03-19T15:48:45.095Z,34.00
2023-03-19T15:51:13.204Z,34.83
2023-03-19T15:53:41.485Z,33.78
2023-03-19T15:56:09.738Z,31.75
2023-03-19T15:58:41.225Z,32.55
2023-03-19T16:01:10.219Z,31.38
2023-03-19T16:03:39.296Z,32.15
2023-03-19T16:06:08.502Z,31.17
2023-03-19T16:08:36.606Z,31.02
2023-03-19T16:11:15.588Z,32.33
2023-03-19T16:13:47.926Z,33.40
2023-03-19T16:16:18.614Z,29.75
2023-03-19T16:18:51.424Z,32.70
2023-03-19T16:21:20.700Z,32.10
2023-03-19T16:23:53.056Z,29.10
2023-03-19T16:26:23.363Z,30.48
2023-03-19T16:29:19.024Z,30.25
2023-03-19T16:31:51.799Z,31.23
2023-03-19T16:34:32.639Z,33.85
2023-03-19T16:37:01.150Z,28.50
2023-03-19T16:39:34.543Z,28.88
2023-03-19T16:42:16.595Z,30.25
2023-03-19T16:44:47.869Z,28.63
2023-03-19T16:47:16.594Z,29.20
2023-03-19T16:49:44.737Z,29.88
2023-03-19T16:52:15.919Z,27.92
2023-03-19T16:54:44.146Z,27.77
2023-03-19T16:57:12.848Z,26.48
2023-03-19T16:59:40.988Z,32.88
2023-03-19T17:02:13.562Z,29.42
2023-03-19T17:04:42.029Z,29.58
2023-03-19T17:07:10.182Z,27.02
2023-03-19T17:09:38.300Z,27.60
2023-03-19T17:12:07.894Z,28.27
2023-03-19T17:14:36.186Z,28.67
2023-03-19T17:17:04.311Z,26.42
2023-03-19T17:19:35.963Z,30.40
2023-03-19T17:22:04.329Z,26.20
2023-03-19T17:24:33.389Z,30.67
2023-03-19T17:27:02.355Z,29.58
2023-03-19T17:29:30.819Z,28.23
2023-03-19T17:32:01.584Z,28.67
2023-03-19T17:34:31.938Z,31.83
2023-03-19T17:37:02.052Z,31.58
2023-03-19T17:39:31.526Z,31.73
2023-03-19T17:41:59.667Z,33.00
2023-03-19T17:44:28.003Z,33.28
2023-03-19T17:46:56.219Z,31.38
2023-03-19T17:49:26.249Z,39.70
2023-03-19T17:51:54.427Z,39.30
2023-03-19T17:54:26.709Z,54.22
2023-03-19T17:56:55.041Z,42.53
2023-03-19T17:59:23.250Z,33.80
2023-03-19T18:01:52.202Z,34.85
2023-03-19T18:04:21.451Z,39.78
2023-03-19T18:06:50.799Z,37.50
2023-03-19T18:09:20.492Z,33.80
2023-03-19T18:11:49.980Z,34.70
2023-03-19T18:14:18.132Z,36.30
2023-03-19T18:16:46.426Z,37.47
2023-03-19T18:19:19.781Z,37.60
2023-03-19T18:21:47.938Z,38.50
2023-03-19T18:24:16.266Z,48.90
2023-03-19T18:26:44.367Z,59.00
2023-03-19T18:29:13.863Z,48.83
2023-03-19T18:31:42.121Z,51.35
2023-03-19T18:34:10.224Z,49.97
2023-03-19T18:36:38.294Z,48.92
2023-03-19T18:39:07.942Z,52.10
2023-03-19T18:41:36.096Z,56.08
2023-03-19T18:44:07.416Z,51.20
2023-03-19T18:46:37.737Z,48.80
2023-03-19T18:49:07.563Z,46.90
2023-03-19T18:51:36.644Z,51.80
2023-03-19T18:54:04.956Z,50.90
2023-03-19T18:56:34.574Z,52.08
2023-03-19T18:59:02.723Z,56.13
2023-03-19T19:01:30.969Z,49.90
2023-03-19T19:04:00.975Z,51.90
2023-03-19T19:06:46.520Z,50.75
2023-03-19T19:09:15.774Z,50.28
2023-03-19T19:11:44.453Z,56.67
2023-03-19T19:14:14.605Z,52.88
2023-03-19T19:16:42.775Z,54.53
2023-03-19T19:19:17.221Z,51.42
2023-03-19T19:21:48.140Z,50.53
2023-03-19T19:24:17.703Z,53.78
2023-03-19T19:26:45.882Z,55.80
2023-03-19T19:29:18.623Z,51.45
2023-03-19T19:31:46.781Z,56.25
2023-03-19T19:34:17.113Z,51.00
2023-03-19T19:36:45.371Z,51.40
2023-03-19T19:39:13.492Z,52.45
2023-03-19T19:41:43.803Z,51.08
2023-03-19T19:44:15.404Z,51.45
2023-03-19T19:46:43.541Z,53.90
2023-03-19T19:49:13.473Z,53.80
2023-03-19T19:51:42.957Z,50.88
2023-03-19T19:54:11.015Z,52.28
2023-03-19T19:56:39.311Z,54.13
2023-03-19T19:59:07.764Z,52.15
2023-03-19T20:01:36.246Z,52.55
2023-03-19T20:04:05.554Z,51.60
2023-03-19T20:06:33.757Z,52.83
2023-03-19T20:09:03.271Z,52.15
2023-03-19T20:11:32.161Z,51.72
2023-03-19T20:14:02.341Z,51.55
2023-03-19T20:16:30.502Z,50.35
2023-03-19T20:18:58.699Z,52.58
2023-03-19T20:21:29.075Z,52.67
2023-03-19T20:23:58.915Z,52.90
2023-03-19T20:26:30.411Z,51.80
2023-03-19T20:28:58.595Z,54.30
2023-03-19T20:31:27.926Z,51.28
2023-03-19T20:33:56.108Z,54.20
2023-03-19T20:36:24.158Z,52.25
2023-03-19T20:38:52.660Z,51.30
2023-03-19T20:41:21.369Z,56.30
2023-03-19T20:43:50.947Z,54.13
2023-03-19T20:46:20.339Z,52.40
2023-03-19T20:48:49.070Z,50.28
2023-03-19T20:51:19.516Z,49.75
2023-03-19T20:53:48.458Z,50.65
2023-03-19T20:56:17.527Z,50.33
2023-03-19T20:58:45.896Z,49.42
2023-03-19T21:01:15.562Z,53.33
2023-03-19T21:03:43.883Z,48.78
2023-03-19T21:06:14.738Z,49.47
2023-03-19T21:08:43.587Z,49.10
2023-03-19T21:11:14.267Z,51.28
2023-03-19T21:13:42.552Z,51.05
2023-03-19T21:16:15.436Z,49.58
2023-03-19T21:18:43.621Z,48.15
2023-03-19T21:21:12.115Z,48.63
2023-03-19T21:23:40.420Z,50.28
2023-03-19T21:26:10.047Z,49.85
2023-03-19T21:28:38.746Z,47.72
2023-03-19T21:31:07.635Z,47.17
2023-03-19T21:33:37.249Z,49.33
2023-03-19T21:36:06.491Z,49.30
2023-03-19T21:38:34.712Z,48.53
2023-03-19T21:41:04.046Z,48.28
2023-03-19T21:43:34.733Z,47.15
2023-03-19T21:46:17.406Z,47.67
2023-03-19T21:48:52.652Z,45.78
2023-03-19T21:51:20.801Z,44.72
2023-03-19T21:53:49.341Z,45.42
2023-03-19T21:56:21.306Z,44.38
2023-03-19T21:58:49.504Z,47.75
2023-03-19T22:01:19.233Z,43.75
2023-03-19T22:03:47.537Z,43.78
2023-03-19T22:06:17.101Z,43.90
2023-03-19T22:08:48.296Z,42.65
2023-03-19T22:11:18.078Z,43.85
2023-03-19T22:13:46.272Z,45.28
2023-03-19T22:16:18.845Z,44.22
2023-03-19T22:18:47.219Z,45.35
2023-03-19T22:21:18.634Z,43.35
2023-03-19T22:23:46.973Z,41.30
2023-03-19T22:26:29.676Z,41.80
2023-03-19T22:28:58.810Z,42.15
2023-03-19T22:31:27.073Z,41.67
2023-03-19T22:33:55.402Z,42.92
2023-03-19T22:36:24.884Z,41.75
2023-03-19T22:38:53.036Z,41.38
2023-03-19T22:41:24.456Z,40.55
2023-03-19T22:43:52.642Z,40.42
2023-03-19T22:46:20.775Z,40.58
2023-03-19T22:48:50.100Z,40.85
2023-03-19T22:51:19.013Z,38.97
2023-03-19T22:53:49.926Z,39.95
2023-03-19T22:56:18.060Z,41.30
2023-03-19T22:58:46.852Z,39.92
2023-03-19T23:01:29.143Z,40.60
2023-03-19T23:03:57.489Z,39.42
2023-03-19T23:06:30.506Z,39.35
2023-03-19T23:09:00.491Z,38.30
2023-03-19T23:11:28.622Z,39.20
2023-03-19T23:13:56.907Z,36.63
2023-03-19T23:16:25.532Z,37.75
2023-03-19T23:21:21.658Z,37.75
2023-03-19T23:23:52.322Z,38.40
2023-03-19T23:26:26.814Z,37.67
2023-03-19T23:28:55.099Z,37.30
2023-03-19T23:31:23.167Z,36.20
2023-03-19T23:33:51.304Z,35.78
2023-03-19T23:36:19.409Z,35.97
2023-03-19T23:38:47.809Z,34.97
2023-03-19T23:41:20.559Z,36.40
2023-03-19T23:43:50.087Z,35.00
2023-03-19T23:46:18.248Z,33.92
2023-03-19T23:48:46.472Z,34.65
2023-03-19T23:51:15.105Z,33.05
2023-03-19T23:53:43.312Z,32.88
2023-03-19T23:56:17.729Z,34.17
2023-03-19T23:58:45.869Z,32.72
